< < Back
Terminal Aerodrome Forecast


Current Version              Previous Versions:   1  2  3  4  5  6  7  8  9  

Terminal Aerodrome Forecast

145
FTUS44 KMRX 260520
TAFTYS
TAF
KTYS 260520Z 2606/2706 24006KT P6SM BKN100
     FM261500 22009KT P6SM VCTS SCT040CB
     FM270000 22008KT P6SM VCTS BKN040CB=

Latest METAR

759
SAUS80 KWBC 261400 RRC
MTRTYS
METAR KTYS 261353Z 00000KT 10SM FEW037 FEW055 BKN150 OVC250 23/18 A3020
RMK AO2 SLP218 T02280178


USA.gov is the U.S. government's official web portal to all federal, state and local government web resources and services.